Time;durP1;ratioP1;P1;durP2;ratioP2;P2;SDS_P1;SDS_P2;PMS_P1;PMS_P2;Temp;Humidity;BMP_temperature;BMP_pressure;BME280_temperature;BME280_humidity;BME280_pressure;Samples;Min_cycle;Max_cycle;Signal;HPM_P1;HPM_P2
2021/03/01 00:01:52;;;;;;;14.85;9.98;;;22.70;41.70;;;;;;6178063;28;80824;-64
2021/03/01 00:04:53;;;;;;;15.57;9.85;;;22.70;41.50;;;;;;6163203;28;86816;-64
2021/03/01 00:07:54;;;;;;;15.27;8.38;;;22.70;41.50;;;;;;6176543;28;83470;-63
2021/03/01 00:10:54;;;;;;;17.38;8.32;;;22.70;41.40;;;;;;6168743;28;81021;-63
2021/03/01 00:13:55;;;;;;;14.93;9.25;;;22.70;41.30;;;;;;6172438;28;80456;-63
2021/03/01 00:16:55;;;;;;;13.05;8.32;;;22.70;41.30;;;;;;6174818;27;81007;-63
2021/03/01 00:19:56;;;;;;;12.43;7.85;;;22.70;41.20;;;;;;6171329;28;80680;-64
2021/03/01 00:22:56;;;;;;;12.63;7.93;;;22.70;41.10;;;;;;6173612;28;80177;-64
2021/03/01 00:25:57;;;;;;;12.10;7.80;;;22.70;40.90;;;;;;6173361;28;81566;-64
2021/03/01 00:28:57;;;;;;;12.82;7.15;;;22.70;40.90;;;;;;6154445;28;81590;-64
2021/03/01 00:31:58;;;;;;;11.40;7.38;;;22.70;40.80;;;;;;6171154;28;80411;-63
2021/03/01 00:34:59;;;;;;;12.55;7.93;;;22.70;40.60;;;;;;6153767;28;80719;-63
2021/03/01 00:37:59;;;;;;;14.77;9.05;;;22.60;40.40;;;;;;6170275;28;80710;-64
2021/03/01 00:41:00;;;;;;;10.52;7.38;;;22.60;40.30;;;;;;6172950;27;80278;-63
2021/03/01 00:44:00;;;;;;;11.25;7.75;;;22.60;40.20;;;;;;6176217;28;80740;-63
2021/03/01 00:47:01;;;;;;;12.40;7.53;;;22.60;40.00;;;;;;6176804;27;81022;-63
2021/03/01 00:50:01;;;;;;;13.23;8.32;;;22.60;40.10;;;;;;6174173;28;81445;-63
2021/03/01 00:53:02;;;;;;;12.50;8.32;;;22.60;40.10;;;;;;6157010;28;80803;-62
2021/03/01 00:56:03;;;;;;;12.43;7.93;;;22.60;40.00;;;;;;6174841;28;84140;-63
2021/03/01 00:59:04;;;;;;;11.57;7.68;;;22.60;39.80;;;;;;6158170;28;83750;-62
2021/03/01 01:02:04;;;;;;;13.35;7.70;;;22.60;39.70;;;;;;6151935;28;82985;-62
2021/03/01 01:05:06;;;;;;;13.25;8.35;;;22.60;39.80;;;;;;6175120;27;83315;-64
2021/03/01 01:08:07;;;;;;;12.15;7.75;;;22.60;39.60;;;;;;6173549;28;81502;-63
2021/03/01 01:11:07;;;;;;;12.02;7.65;;;22.60;39.60;;;;;;6174647;27;80329;-63
2021/03/01 01:14:08;;;;;;;11.00;7.72;;;22.60;39.60;;;;;;6170693;28;91264;-63
2021/03/01 01:17:09;;;;;;;10.50;7.65;;;22.50;39.50;;;;;;6157929;28;81583;-63
2021/03/01 01:20:09;;;;;;;9.20;6.93;;;22.60;39.50;;;;;;6168859;28;80967;-63
2021/03/01 01:23:10;;;;;;;12.60;7.78;;;22.60;39.50;;;;;;6170419;28;81591;-64
2021/03/01 01:26:10;;;;;;;9.70;7.22;;;22.60;39.40;;;;;;6171550;28;81009;-63
2021/03/01 01:29:11;;;;;;;11.27;8.27;;;22.60;39.30;;;;;;6168302;27;80511;-64
2021/03/01 01:32:11;;;;;;;11.60;8.07;;;22.60;39.20;;;;;;6167196;28;83275;-66
2021/03/01 01:35:12;;;;;;;12.05;7.97;;;22.50;39.00;;;;;;6173281;28;81007;-63
2021/03/01 01:38:12;;;;;;;10.75;8.15;;;22.50;38.90;;;;;;6163544;28;82945;-66
2021/03/01 01:41:13;;;;;;;11.88;8.05;;;22.50;38.70;;;;;;6174773;28;84546;-66
2021/03/01 01:44:13;;;;;;;11.43;8.35;;;22.50;38.60;;;;;;6169049;28;81547;-66
2021/03/01 01:47:14;;;;;;;12.02;7.82;;;22.50;38.40;;;;;;6172715;27;80494;-66
2021/03/01 01:50:15;;;;;;;12.23;7.82;;;22.60;38.40;;;;;;6167564;28;81173;-65
2021/03/01 01:53:15;;;;;;;12.52;8.25;;;22.50;38.30;;;;;;6172863;28;80879;-65
2021/03/01 01:56:16;;;;;;;12.60;7.72;;;22.50;38.30;;;;;;6173143;28;80919;-66
2021/03/01 01:59:16;;;;;;;12.00;7.93;;;22.60;38.30;;;;;;6174284;28;80309;-66
2021/03/01 02:02:17;;;;;;;11.65;7.93;;;22.50;38.20;;;;;;6175707;28;81494;-65
2021/03/01 02:05:17;;;;;;;11.13;7.80;;;22.50;38.00;;;;;;6170656;28;81599;-66
2021/03/01 02:08:18;;;;;;;10.35;7.13;;;22.50;38.00;;;;;;6170356;28;80789;-66
2021/03/01 02:11:18;;;;;;;11.40;8.00;;;22.50;38.00;;;;;;6167436;28;81104;-66
2021/03/01 02:14:19;;;;;;;12.55;8.13;;;22.50;38.00;;;;;;6150734;28;82683;-66
2021/03/01 02:17:19;;;;;;;12.77;8.88;;;22.50;37.90;;;;;;6167688;28;80696;-65
2021/03/01 02:20:20;;;;;;;13.48;8.65;;;22.50;37.70;;;;;;6168244;28;81143;-66
2021/03/01 02:23:20;;;;;;;11.52;7.80;;;22.50;37.60;;;;;;6173631;28;80720;-66
2021/03/01 02:26:21;;;;;;;10.38;7.60;;;22.50;37.70;;;;;;6174903;27;81950;-66
2021/03/01 02:29:21;;;;;;;12.23;8.10;;;22.50;37.60;;;;;;6169570;28;80378;-66
2021/03/01 02:32:22;;;;;;;11.68;7.95;;;22.50;37.60;;;;;;6174140;28;80959;-66
2021/03/01 02:35:22;;;;;;;10.68;7.97;;;22.50;37.50;;;;;;6175630;28;80308;-65
2021/03/01 02:38:23;;;;;;;11.00;8.20;;;22.40;37.40;;;;;;6172677;28;84573;-67
2021/03/01 02:41:23;;;;;;;12.95;8.40;;;22.40;37.40;;;;;;6176857;28;81332;-66
2021/03/01 02:44:24;;;;;;;12.98;8.50;;;22.50;37.40;;;;;;6173943;28;81656;-65
2021/03/01 02:47:25;;;;;;;12.57;8.90;;;22.50;37.30;;;;;;6173428;28;80867;-65
2021/03/01 02:50:25;;;;;;;11.65;8.32;;;22.50;37.30;;;;;;6181174;28;80942;-66
2021/03/01 02:53:26;;;;;;;11.18;7.72;;;22.50;37.20;;;;;;6168237;28;82523;-66
2021/03/01 02:56:26;;;;;;;13.88;8.93;;;22.50;37.10;;;;;;6169313;27;81473;-65
2021/03/01 02:59:27;;;;;;;13.20;8.88;;;22.50;37.00;;;;;;6174363;28;80905;-66
2021/03/01 03:02:27;;;;;;;13.35;9.15;;;22.50;37.00;;;;;;6176529;28;80942;-65
2021/03/01 03:05:28;;;;;;;12.65;8.85;;;22.40;36.90;;;;;;6177329;28;81773;-66
2021/03/01 03:08:28;;;;;;;11.02;8.10;;;22.40;37.00;;;;;;6176894;28;80983;-65
2021/03/01 03:11:29;;;;;;;12.27;8.18;;;22.40;37.00;;;;;;6178298;28;80716;-66
2021/03/01 03:14:29;;;;;;;11.93;8.82;;;22.50;37.10;;;;;;6176811;28;80734;-65
2021/03/01 03:17:30;;;;;;;12.75;8.80;;;22.50;37.70;;;;;;6168393;28;80472;-63
2021/03/01 03:20:30;;;;;;;11.82;8.27;;;22.40;36.90;;;;;;6176749;28;80654;-64
2021/03/01 03:23:31;;;;;;;13.40;8.48;;;22.40;36.80;;;;;;6169570;28;80480;-64
2021/03/01 03:26:32;;;;;;;13.27;9.10;;;22.40;36.90;;;;;;6170613;28;81424;-64
2021/03/01 03:29:32;;;;;;;12.00;8.50;;;22.40;36.70;;;;;;6178582;28;80207;-64
2021/03/01 03:32:33;;;;;;;13.43;8.77;;;22.50;36.70;;;;;;6179294;28;81880;-64
2021/03/01 03:35:33;;;;;;;15.00;8.75;;;22.50;36.70;;;;;;6176958;28;80880;-64
2021/03/01 03:38:34;;;;;;;12.65;9.43;;;22.50;36.60;;;;;;6172321;28;81729;-64
2021/03/01 03:41:34;;;;;;;12.13;8.48;;;22.50;36.60;;;;;;6170085;28;81676;-65
2021/03/01 03:44:35;;;;;;;12.15;8.40;;;22.40;36.60;;;;;;6176915;28;80810;-64
2021/03/01 03:47:35;;;;;;;14.30;8.90;;;22.40;36.50;;;;;;6173475;27;81671;-65
2021/03/01 03:50:36;;;;;;;13.75;9.07;;;22.50;36.70;;;;;;6176188;28;81213;-65
2021/03/01 03:53:36;;;;;;;11.77;8.32;;;22.40;36.50;;;;;;6169605;28;81888;-64
2021/03/01 03:56:37;;;;;;;13.95;8.85;;;22.50;36.70;;;;;;6175158;28;81005;-64
2021/03/01 03:59:37;;;;;;;13.77;8.95;;;22.40;36.60;;;;;;6173469;28;81372;-64
2021/03/01 04:02:38;;;;;;;13.85;10.15;;;22.40;36.40;;;;;;6176829;28;81223;-65
2021/03/01 04:05:39;;;;;;;14.68;10.20;;;22.40;36.30;;;;;;6168038;28;83191;-64
2021/03/01 04:08:39;;;;;;;12.73;9.85;;;22.40;36.20;;;;;;6167285;27;83081;-63
2021/03/01 04:11:40;;;;;;;13.68;9.23;;;22.40;36.10;;;;;;6174294;28;83019;-63
2021/03/01 04:14:40;;;;;;;11.98;8.90;;;22.40;36.10;;;;;;6177200;27;80093;-64
2021/03/01 04:17:41;;;;;;;12.45;8.50;;;22.40;36.30;;;;;;6169298;28;82553;-64
2021/03/01 04:20:41;;;;;;;12.40;9.15;;;22.40;36.50;;;;;;6171053;27;80733;-64
2021/03/01 04:23:42;;;;;;;14.27;8.90;;;22.40;36.00;;;;;;6176026;28;80831;-65
2021/03/01 04:26:43;;;;;;;14.38;9.80;;;22.50;36.20;;;;;;6167596;28;80335;-64
2021/03/01 04:29:43;;;;;;;15.23;9.45;;;22.40;35.30;;;;;;6173619;28;81733;-65
2021/03/01 04:32:44;;;;;;;14.52;10.05;;;22.50;35.10;;;;;;6166661;28;80698;-64
2021/03/01 04:35:44;;;;;;;12.48;8.93;;;22.60;35.30;;;;;;6173486;28;83426;-65
2021/03/01 04:38:45;;;;;;;14.18;9.93;;;22.60;36.40;;;;;;6178660;28;83012;-65
2021/03/01 04:41:45;;;;;;;14.80;9.90;;;22.70;35.80;;;;;;6139798;27;81033;-64
2021/03/01 04:44:46;;;;;;;14.70;10.05;;;22.70;35.70;;;;;;6167575;28;80805;-65
2021/03/01 04:47:46;;;;;;;15.88;10.50;;;22.80;35.70;;;;;;6172065;28;83605;-64
2021/03/01 04:50:47;;;;;;;16.48;10.82;;;22.80;35.50;;;;;;6171141;28;85164;-64
2021/03/01 04:53:47;;;;;;;14.38;9.95;;;22.80;35.40;;;;;;6169318;28;83019;-65
2021/03/01 04:56:48;;;;;;;15.23;10.38;;;22.80;35.30;;;;;;6172141;28;83092;-65
2021/03/01 04:59:48;;;;;;;16.10;11.05;;;22.90;35.40;;;;;;6171136;28;83229;-65
2021/03/01 05:02:49;;;;;;;15.98;10.90;;;22.90;35.40;;;;;;6170269;28;84241;-64
2021/03/01 05:05:50;;;;;;;13.05;9.38;;;22.90;35.30;;;;;;6169729;27;83659;-66
2021/03/01 05:08:50;;;;;;;15.20;9.52;;;22.90;35.10;;;;;;6171943;28;82872;-65
2021/03/01 05:11:51;;;;;;;14.95;10.52;;;22.90;35.40;;;;;;6175430;27;80359;-64
2021/03/01 05:14:51;;;;;;;15.43;10.02;;;22.90;35.40;;;;;;6168386;28;83129;-66
2021/03/01 05:17:52;;;;;;;15.90;9.43;;;23.00;35.70;;;;;;6169132;28;84263;-65
2021/03/01 05:20:54;;;;;;;14.15;9.30;;;23.00;35.80;;;;;;6178592;27;82874;-62
2021/03/01 05:23:55;;;;;;;14.80;9.27;;;23.00;35.90;;;;;;6175465;28;80377;-62
2021/03/01 05:26:56;;;;;;;14.52;9.70;;;23.00;35.70;;;;;;6174788;27;80366;-64
2021/03/01 05:29:56;;;;;;;14.15;9.82;;;23.10;35.80;;;;;;6173114;28;80708;-64
2021/03/01 05:32:57;;;;;;;15.35;10.15;;;23.00;36.40;;;;;;6175540;28;81131;-62
2021/03/01 05:35:57;;;;;;;13.43;8.93;;;23.00;36.10;;;;;;6173086;28;83807;-65
2021/03/01 05:38:58;;;;;;;19.40;10.32;;;23.00;36.00;;;;;;6168811;28;83130;-63
2021/03/01 05:41:58;;;;;;;19.85;11.40;;;23.00;36.10;;;;;;6173293;28;83433;-63
2021/03/01 05:44:59;;;;;;;17.38;10.63;;;23.10;36.00;;;;;;6172357;28;83506;-64
2021/03/01 05:47:59;;;;;;;16.67;10.57;;;23.10;36.10;;;;;;6171487;28;83521;-64
2021/03/01 05:51:00;;;;;;;18.20;10.82;;;23.10;36.20;;;;;;6153069;28;85116;-64
2021/03/01 05:54:01;;;;;;;16.10;10.50;;;23.10;36.00;;;;;;6166741;28;86336;-64
2021/03/01 05:57:01;;;;;;;17.33;10.43;;;23.10;36.20;;;;;;6171610;28;83710;-63
2021/03/01 06:00:02;;;;;;;17.98;10.50;;;23.10;36.60;;;;;;6168768;28;83284;-63
2021/03/01 06:03:05;;;;;;;15.98;10.82;;;23.10;36.50;;;;;;6172955;28;83313;-63
2021/03/01 06:06:06;;;;;;;19.52;11.15;;;23.10;36.80;;;;;;6162370;27;83703;-62
2021/03/01 06:09:06;;;;;;;18.38;10.90;;;23.20;36.90;;;;;;6172069;28;83931;-63
2021/03/01 06:12:07;;;;;;;19.17;11.23;;;23.10;37.20;;;;;;6167821;28;84751;-64
2021/03/01 06:15:07;;;;;;;18.52;11.18;;;23.10;37.30;;;;;;6171742;28;83083;-64
2021/03/01 06:18:08;;;;;;;17.17;11.30;;;23.20;37.40;;;;;;6168656;28;83288;-63
2021/03/01 06:21:08;;;;;;;16.27;11.02;;;23.20;37.40;;;;;;6156639;28;83735;-63
2021/03/01 06:24:09;;;;;;;19.15;12.35;;;23.20;37.70;;;;;;6167891;28;83305;-63
2021/03/01 06:27:10;;;;;;;15.73;10.18;;;23.10;37.80;;;;;;6172282;28;83748;-63
2021/03/01 06:30:11;;;;;;;28.05;11.13;;;23.10;37.50;;;;;;6167873;28;83570;-62
2021/03/01 06:33:11;;;;;;;18.73;10.38;;;23.10;38.10;;;;;;6164205;28;84330;-64
2021/03/01 06:36:12;;;;;;;22.75;11.57;;;23.10;37.80;;;;;;6167071;27;83546;-64
2021/03/01 06:39:12;;;;;;;25.08;11.70;;;23.00;37.50;;;;;;6172343;28;84269;-63
2021/03/01 06:42:13;;;;;;;20.98;11.07;;;23.00;37.90;;;;;;6168200;28;85060;-64
2021/03/01 06:45:14;;;;;;;20.13;11.27;;;23.00;38.00;;;;;;6165461;28;83953;-63
2021/03/01 06:48:14;;;;;;;20.33;11.88;;;22.90;37.90;;;;;;6160074;28;85716;-63
2021/03/01 06:51:15;;;;;;;19.25;11.30;;;23.00;38.70;;;;;;6166763;27;84313;-63
2021/03/01 06:54:15;;;;;;;17.25;10.63;;;22.90;37.50;;;;;;6168877;28;85142;-63
2021/03/01 06:57:16;;;;;;;21.02;11.02;;;22.90;38.10;;;;;;6165498;28;83073;-65
2021/03/01 07:00:16;;;;;;;15.57;10.75;;;22.90;37.30;;;;;;6167805;28;83190;-64
2021/03/01 07:03:17;;;;;;;18.65;11.40;;;22.80;36.70;;;;;;6166952;27;84396;-65
2021/03/01 07:06:17;;;;;;;17.33;11.27;;;22.80;36.30;;;;;;6164613;28;83107;-63
2021/03/01 07:09:18;;;;;;;22.30;12.30;;;22.80;36.00;;;;;;6168952;28;83633;-63
2021/03/01 07:12:18;;;;;;;19.20;12.85;;;22.70;35.70;;;;;;6165203;28;83279;-63
2021/03/01 07:15:19;;;;;;;17.50;10.93;;;22.70;35.40;;;;;;6170250;28;87174;-63
2021/03/01 07:18:20;;;;;;;21.70;12.70;;;22.70;35.30;;;;;;6161374;27;83716;-63
2021/03/01 07:21:20;;;;;;;23.45;13.35;;;22.70;35.40;;;;;;6137708;28;86033;-64
2021/03/01 07:24:21;;;;;;;20.50;12.30;;;22.70;35.40;;;;;;6170092;27;83526;-64
2021/03/01 07:27:21;;;;;;;21.38;12.48;;;22.60;35.30;;;;;;6156803;28;83178;-64
2021/03/01 07:30:22;;;;;;;22.63;11.88;;;22.70;35.90;;;;;;6172796;28;83215;-63
2021/03/01 07:33:22;;;;;;;17.90;12.15;;;22.60;36.40;;;;;;6173970;28;83022;-64
2021/03/01 07:36:23;;;;;;;21.30;12.05;;;22.70;36.70;;;;;;6150640;28;84733;-63
2021/03/01 07:39:23;;;;;;;20.15;11.70;;;22.70;36.40;;;;;;6174409;28;83317;-64
2021/03/01 07:42:24;;;;;;;18.58;11.30;;;22.60;36.50;;;;;;6167432;27;83487;-64
2021/03/01 07:45:24;;;;;;;20.20;11.20;;;22.70;36.80;;;;;;6166413;28;83431;-63
2021/03/01 07:48:25;;;;;;;19.38;11.45;;;22.70;36.30;;;;;;6171519;28;82902;-64
2021/03/01 07:51:25;;;;;;;18.58;11.13;;;22.70;36.00;;;;;;6174021;28;84095;-64
2021/03/01 07:54:26;;;;;;;23.98;11.63;;;22.60;36.00;;;;;;6166391;28;85242;-64
2021/03/01 07:57:26;;;;;;;20.17;11.05;;;22.60;36.20;;;;;;6171084;28;83255;-64
2021/03/01 08:00:27;;;;;;;19.42;11.32;;;22.70;36.10;;;;;;6157955;27;83280;-63
2021/03/01 08:03:28;;;;;;;19.27;10.77;;;22.60;36.20;;;;;;6172181;28;83516;-64
2021/03/01 08:06:28;;;;;;;19.30;10.95;;;22.70;36.20;;;;;;6168681;27;83487;-64
2021/03/01 08:09:29;;;;;;;21.42;11.60;;;22.70;36.20;;;;;;6170632;28;83926;-64
2021/03/01 08:12:29;;;;;;;20.30;11.65;;;22.60;36.20;;;;;;6171645;28;83214;-64
2021/03/01 08:15:30;;;;;;;24.02;11.07;;;22.60;36.00;;;;;;6175571;28;83358;-64
2021/03/01 08:18:30;;;;;;;18.65;10.65;;;22.60;36.90;;;;;;6172537;28;83845;-63
2021/03/01 08:21:31;;;;;;;20.83;11.02;;;22.60;36.20;;;;;;6164872;27;83274;-63
2021/03/01 08:24:31;;;;;;;18.33;10.90;;;22.60;36.00;;;;;;6169656;28;83276;-64
2021/03/01 08:27:32;;;;;;;19.05;11.02;;;22.60;36.10;;;;;;6163438;28;83938;-63
2021/03/01 08:30:32;;;;;;;18.10;9.60;;;22.50;36.30;;;;;;6170540;28;84299;-63
2021/03/01 08:33:33;;;;;;;18.90;10.45;;;22.50;36.10;;;;;;6178079;28;82864;-64
2021/03/01 08:36:33;;;;;;;20.23;11.38;;;22.60;36.10;;;;;;6170273;28;83293;-63
2021/03/01 08:39:34;;;;;;;23.27;10.88;;;22.60;36.30;;;;;;6173296;28;83633;-66
2021/03/01 08:42:34;;;;;;;18.17;10.50;;;22.60;36.30;;;;;;6169556;28;83175;-63
2021/03/01 08:45:35;;;;;;;21.52;11.50;;;22.50;36.30;;;;;;6170166;28;83177;-63
2021/03/01 08:48:36;;;;;;;22.75;10.82;;;22.50;36.20;;;;;;6162331;28;83665;-63
2021/03/01 08:51:36;;;;;;;17.67;10.85;;;22.60;36.30;;;;;;6170478;28;84104;-63
2021/03/01 08:54:37;;;;;;;19.13;11.70;;;22.60;36.50;;;;;;6171691;28;83577;-63
2021/03/01 08:57:37;;;;;;;19.65;11.27;;;22.50;36.30;;;;;;6170522;28;84574;-63
2021/03/01 09:00:38;;;;;;;21.25;10.90;;;22.60;36.30;;;;;;6160927;28;86718;-63
2021/03/01 09:03:39;;;;;;;18.13;11.57;;;22.50;37.10;;;;;;6166973;28;83394;-63
2021/03/01 09:06:39;;;;;;;22.23;11.60;;;22.50;36.30;;;;;;6169841;28;83625;-64
2021/03/01 09:09:40;;;;;;;23.10;11.32;;;22.50;36.40;;;;;;6166830;28;83306;-64
2021/03/01 09:12:40;;;;;;;20.67;11.63;;;22.50;36.40;;;;;;6171533;28;83411;-63
2021/03/01 09:15:41;;;;;;;31.92;12.02;;;22.60;36.30;;;;;;6166071;28;84124;-63
2021/03/01 09:18:41;;;;;;;19.65;10.85;;;22.60;36.20;;;;;;6167988;28;87504;-64
2021/03/01 09:21:42;;;;;;;18.45;11.18;;;22.60;36.00;;;;;;6172737;28;84464;-64
2021/03/01 09:24:43;;;;;;;23.13;10.88;;;22.60;35.90;;;;;;6165837;28;83495;-63
2021/03/01 09:27:43;;;;;;;19.40;11.57;;;22.70;35.70;;;;;;6169975;28;83428;-63
2021/03/01 09:30:44;;;;;;;18.45;10.38;;;22.70;35.40;;;;;;6171575;28;83451;-63
2021/03/01 09:33:45;;;;;;;18.02;9.75;;;22.70;35.40;;;;;;6160856;27;83392;-64
2021/03/01 09:36:47;;;;;;;21.92;10.88;;;22.70;35.10;;;;;;6171616;28;83305;-63
2021/03/01 09:39:48;;;;;;;20.90;11.45;;;22.80;34.80;;;;;;6169218;28;83306;-64
2021/03/01 09:42:48;;;;;;;18.25;10.55;;;22.90;34.60;;;;;;6169373;28;83180;-64
2021/03/01 09:45:49;;;;;;;20.23;11.02;;;22.90;34.60;;;;;;6169986;28;83900;-64
2021/03/01 09:48:49;;;;;;;25.77;13.07;;;22.90;34.90;;;;;;6164635;28;83593;-64
2021/03/01 09:51:50;;;;;;;21.33;13.00;;;23.00;34.50;;;;;;6169042;27;83533;-65
2021/03/01 09:54:51;;;;;;;21.83;13.40;;;22.70;33.50;;;;;;6170051;28;83050;-63
2021/03/01 09:57:51;;;;;;;29.23;14.02;;;22.50;33.30;;;;;;6172318;28;83045;-64
2021/03/01 10:00:52;;;;;;;25.98;14.70;;;22.40;34.10;;;;;;6171049;28;83777;-63
2021/03/01 10:03:52;;;;;;;21.33;12.77;;;22.20;34.20;;;;;;6167330;28;83368;-66
2021/03/01 10:06:53;;;;;;;21.90;12.60;;;22.20;34.00;;;;;;6169929;28;85832;-66
2021/03/01 10:09:53;;;;;;;20.77;13.40;;;22.20;33.80;;;;;;6172865;28;84171;-66
2021/03/01 10:12:54;;;;;;;23.98;13.38;;;22.20;33.60;;;;;;6165560;28;84297;-66
2021/03/01 10:15:55;;;;;;;31.48;13.60;;;22.10;33.00;;;;;;6170030;28;83338;-64
2021/03/01 10:18:56;;;;;;;29.60;13.27;;;22.00;33.40;;;;;;6170504;28;83594;-65
2021/03/01 10:21:56;;;;;;;36.83;12.77;;;21.90;33.40;;;;;;6172498;28;83508;-64
2021/03/01 10:24:57;;;;;;;26.80;12.63;;;21.90;33.10;;;;;;6164900;28;87448;-66
2021/03/01 10:27:58;;;;;;;21.75;11.63;;;21.80;32.90;;;;;;6169491;28;85171;-65
2021/03/01 10:30:58;;;;;;;20.75;12.25;;;21.80;33.30;;;;;;6162115;28;82953;-64
2021/03/01 10:33:59;;;;;;;23.40;12.63;;;21.70;32.50;;;;;;6163046;28;83526;-64
2021/03/01 10:37:01;;;;;;;27.20;12.60;;;21.70;32.50;;;;;;6165468;28;83399;-64
2021/03/01 10:40:01;;;;;;;26.55;11.95;;;21.70;32.50;;;;;;6167675;28;84713;-64
2021/03/01 10:43:02;;;;;;;21.30;10.95;;;21.70;32.50;;;;;;6154627;28;83331;-65
2021/03/01 10:46:02;;;;;;;27.42;13.35;;;21.60;32.30;;;;;;6170932;27;84219;-65
2021/03/01 10:49:03;;;;;;;27.02;11.93;;;21.60;32.30;;;;;;6168893;28;83035;-65
2021/03/01 10:52:03;;;;;;;20.20;12.05;;;21.50;32.30;;;;;;6169801;27;83177;-64
2021/03/01 10:55:04;;;;;;;17.73;9.95;;;21.50;32.20;;;;;;6172968;28;83996;-64
2021/03/01 10:58:04;;;;;;;21.02;10.82;;;21.40;32.20;;;;;;6176483;28;82891;-65
2021/03/01 11:01:05;;;;;;;22.83;12.18;;;21.40;32.00;;;;;;6146372;28;83985;-65
2021/03/01 11:04:06;;;;;;;23.70;11.25;;;21.30;32.30;;;;;;6153994;28;83215;-62
2021/03/01 11:07:06;;;;;;;21.90;11.23;;;21.30;32.70;;;;;;6170479;28;83050;-64
2021/03/01 11:10:07;;;;;;;25.70;11.85;;;21.50;33.30;;;;;;6170358;28;84016;-63
2021/03/01 11:13:07;;;;;;;20.27;10.23;;;21.60;33.50;;;;;;6169961;28;83704;-63
2021/03/01 11:16:08;;;;;;;19.70;9.90;;;21.70;33.80;;;;;;6173850;28;83389;-63
2021/03/01 11:19:08;;;;;;;19.55;9.70;;;21.80;34.00;;;;;;6175413;28;82875;-62
2021/03/01 11:22:09;;;;;;;19.65;10.23;;;21.90;34.00;;;;;;6165463;28;80734;-64
2021/03/01 11:25:09;;;;;;;18.30;9.93;;;22.00;34.20;;;;;;6171135;28;84429;-63
2021/03/01 11:28:11;;;;;;;22.30;10.00;;;22.00;34.30;;;;;;6171890;28;83017;-62
2021/03/01 11:31:12;;;;;;;18.50;10.63;;;22.00;34.30;;;;;;6170449;27;83357;-63
2021/03/01 11:34:12;;;;;;;22.48;10.38;;;22.10;34.70;;;;;;6174301;28;84292;-63
2021/03/01 11:37:13;;;;;;;17.35;10.20;;;22.10;35.10;;;;;;6170324;27;83748;-64
2021/03/01 11:40:13;;;;;;;17.50;9.50;;;22.20;36.30;;;;;;6170661;28;82938;-63
2021/03/01 11:43:14;;;;;;;19.23;9.70;;;22.30;34.60;;;;;;6174355;27;82071;-61
2021/03/01 11:46:14;;;;;;;16.83;9.73;;;22.30;33.90;;;;;;6178192;28;80338;-61
2021/03/01 11:49:15;;;;;;;21.02;10.10;;;22.40;33.70;;;;;;6158865;28;81214;-61
2021/03/01 11:52:15;;;;;;;19.10;10.65;;;22.50;33.60;;;;;;6166046;28;83749;-61
2021/03/01 11:55:16;;;;;;;17.52;9.65;;;22.50;33.60;;;;;;6169029;28;83233;-62
2021/03/01 11:58:16;;;;;;;17.08;9.43;;;22.60;33.90;;;;;;6174749;28;83068;-62
2021/03/01 12:01:17;;;;;;;18.35;9.25;;;22.70;34.00;;;;;;6168793;28;81481;-63
2021/03/01 12:04:17;;;;;;;17.95;9.70;;;22.70;34.00;;;;;;6174528;27;80737;-62
2021/03/01 12:07:18;;;;;;;17.25;9.60;;;22.80;34.00;;;;;;6173488;28;80639;-62
2021/03/01 12:10:19;;;;;;;17.10;9.82;;;22.80;33.90;;;;;;6171762;28;81380;-62
2021/03/01 12:13:19;;;;;;;17.77;8.50;;;22.80;33.80;;;;;;6170442;28;81098;-62
2021/03/01 12:16:20;;;;;;;16.67;9.48;;;22.90;33.80;;;;;;6174993;28;81105;-62
2021/03/01 12:19:20;;;;;;;16.30;10.00;;;22.90;33.80;;;;;;6172073;28;80274;-63
2021/03/01 12:22:21;;;;;;;19.15;9.77;;;22.90;34.30;;;;;;6171163;27;83404;-63
2021/03/01 12:25:21;;;;;;;13.35;9.07;;;23.00;34.20;;;;;;6170214;28;82869;-63
2021/03/01 12:28:22;;;;;;;17.23;10.20;;;23.00;34.70;;;;;;6171126;27;83932;-63
2021/03/01 12:31:23;;;;;;;16.58;9.07;;;23.10;34.40;;;;;;6168631;28;83100;-62
2021/03/01 12:34:23;;;;;;;17.23;10.50;;;23.10;34.40;;;;;;6174320;28;84133;-62
2021/03/01 12:37:24;;;;;;;15.90;9.90;;;23.10;34.20;;;;;;6169216;28;83577;-63
2021/03/01 12:40:24;;;;;;;18.17;10.45;;;23.10;34.10;;;;;;6171280;28;83327;-63
2021/03/01 12:43:25;;;;;;;15.52;10.23;;;23.10;33.90;;;;;;6166212;28;83568;-62
2021/03/01 12:46:25;;;;;;;15.18;9.45;;;23.10;33.80;;;;;;6160485;28;83132;-63
2021/03/01 12:49:26;;;;;;;15.15;9.35;;;23.10;33.80;;;;;;6175092;28;84336;-63
2021/03/01 12:52:26;;;;;;;17.67;10.00;;;23.00;34.00;;;;;;6167191;27;81691;-63
2021/03/01 12:55:27;;;;;;;15.88;9.23;;;23.10;33.90;;;;;;6168403;28;86191;-63
2021/03/01 12:58:27;;;;;;;14.23;8.85;;;23.10;33.90;;;;;;6166428;28;84969;-63
2021/03/01 13:01:28;;;;;;;13.75;9.20;;;23.10;33.90;;;;;;6172387;28;80854;-63
2021/03/01 13:04:28;;;;;;;17.85;9.52;;;23.00;33.90;;;;;;6168196;28;80725;-63
2021/03/01 13:07:29;;;;;;;15.52;8.48;;;23.10;34.30;;;;;;6165207;28;83321;-63
2021/03/01 13:10:29;;;;;;;14.63;9.00;;;23.10;34.10;;;;;;6152110;28;80558;-63
2021/03/01 13:13:30;;;;;;;16.88;8.98;;;23.00;34.10;;;;;;6171950;28;80420;-62
2021/03/01 13:16:31;;;;;;;13.77;9.02;;;23.10;34.20;;;;;;6167528;28;80327;-63
2021/03/01 13:19:31;;;;;;;16.38;9.95;;;23.10;35.20;;;;;;6171771;28;81729;-63
2021/03/01 13:22:32;;;;;;;13.60;8.45;;;23.00;34.40;;;;;;6168426;27;80833;-63
2021/03/01 13:25:32;;;;;;;13.85;8.65;;;23.00;34.40;;;;;;6167325;28;80458;-63
2021/03/01 13:28:33;;;;;;;14.93;8.90;;;23.00;35.30;;;;;;6168096;27;81470;-62
2021/03/01 13:31:33;;;;;;;15.77;9.02;;;23.00;35.80;;;;;;6171127;28;81453;-63
2021/03/01 13:34:34;;;;;;;14.93;8.65;;;22.90;35.60;;;;;;6172394;28;84332;-63
2021/03/01 13:37:34;;;;;;;11.70;8.23;;;22.90;35.20;;;;;;6171482;28;80848;-63
2021/03/01 13:40:35;;;;;;;12.77;7.85;;;22.90;36.50;;;;;;6169331;28;80718;-64
2021/03/01 13:43:35;;;;;;;12.95;7.88;;;22.90;36.60;;;;;;6166156;28;81565;-63
2021/03/01 13:46:36;;;;;;;14.55;8.95;;;22.90;37.10;;;;;;6170564;27;81203;-64
2021/03/01 13:49:36;;;;;;;11.63;8.18;;;22.90;36.70;;;;;;6172048;28;80962;-64
2021/03/01 13:52:37;;;;;;;14.88;8.93;;;22.80;36.20;;;;;;6160605;27;80880;-65
2021/03/01 13:55:38;;;;;;;11.73;8.60;;;22.80;36.00;;;;;;6168617;28;80747;-64
2021/03/01 13:58:38;;;;;;;13.07;8.73;;;22.80;36.00;;;;;;6173443;28;82907;-62
2021/03/01 14:01:39;;;;;;;12.60;8.23;;;22.80;36.20;;;;;;6174712;28;80795;-63
2021/03/01 14:04:39;;;;;;;13.15;8.63;;;22.80;37.20;;;;;;6170959;28;80849;-63
2021/03/01 14:07:40;;;;;;;14.52;9.00;;;22.80;36.80;;;;;;6170522;28;83404;-63
2021/03/01 14:10:40;;;;;;;15.35;9.77;;;22.80;37.90;;;;;;6166223;27;80647;-62
2021/03/01 14:13:41;;;;;;;14.68;8.50;;;22.70;38.60;;;;;;6176782;28;81088;-62
2021/03/01 14:16:41;;;;;;;14.68;9.65;;;22.80;37.10;;;;;;6175531;28;80710;-64
2021/03/01 14:19:42;;;;;;;13.90;8.60;;;22.70;36.50;;;;;;6172488;28;81938;-63
2021/03/01 14:22:42;;;;;;;13.35;9.63;;;22.70;38.60;;;;;;6171476;28;80471;-64
2021/03/01 14:25:43;;;;;;;14.52;8.82;;;22.70;38.50;;;;;;6174157;28;80797;-63
2021/03/01 14:28:43;;;;;;;12.90;8.88;;;22.70;37.40;;;;;;6173781;28;80987;-64
2021/03/01 14:31:44;;;;;;;13.95;8.63;;;22.70;38.20;;;;;;6171718;28;83646;-64
2021/03/01 14:34:44;;;;;;;16.48;8.38;;;22.70;38.30;;;;;;6174283;27;80827;-64
2021/03/01 14:37:45;;;;;;;15.68;9.75;;;22.70;37.40;;;;;;6177054;28;81189;-64
2021/03/01 14:40:45;;;;;;;17.33;9.98;;;22.70;37.70;;;;;;6171204;27;81048;-64
2021/03/01 14:43:46;;;;;;;154.52;46.90;;;22.70;36.90;;;;;;6174740;28;83997;-63
2021/03/01 14:46:46;;;;;;;1007.50;409.10;;;22.70;37.70;;;;;;6171234;28;83977;-63
2021/03/01 14:49:47;;;;;;;1181.03;481.63;;;22.70;36.80;;;;;;6170843;28;86002;-64
2021/03/01 14:52:47;;;;;;;773.78;304.30;;;22.80;36.80;;;;;;6171302;27;86170;-63
2021/03/01 14:55:48;;;;;;;765.60;305.20;;;22.80;36.80;;;;;;6171528;28;86267;-63
2021/03/01 14:58:49;;;;;;;650.45;250.82;;;22.80;37.90;;;;;;6170100;28;86265;-64
2021/03/01 15:01:49;;;;;;;635.85;235.38;;;22.80;36.70;;;;;;6162285;28;85953;-65
2021/03/01 15:04:50;;;;;;;576.58;219.80;;;22.70;38.60;;;;;;6166151;28;85838;-64
2021/03/01 15:07:51;;;;;;;527.80;191.50;;;22.70;37.30;;;;;;6167896;28;86022;-64
2021/03/01 15:10:52;;;;;;;722.60;297.15;;;22.70;38.00;;;;;;6171670;27;85558;-63
2021/03/01 15:13:52;;;;;;;1591.25;619.55;;;22.70;37.30;;;;;;6148898;28;86603;-63
2021/03/01 15:16:53;;;;;;;1548.30;616.90;;;22.80;37.30;;;;;;6165569;28;86094;-62
2021/03/01 15:19:54;;;;;;;1131.43;461.20;;;22.80;37.20;;;;;;6165995;28;86068;-63